Time;durP1;ratioP1;P1;durP2;ratioP2;P2;SDS_P1;SDS_P2;PMS_P1;PMS_P2;Temp;Humidity;BMP_temperature;BMP_pressure;BME280_temperature;BME280_humidity;BME280_pressure;Samples;Min_cycle;Max_cycle;Signal;HPM_P1;HPM_P2
2021/07/22 00:02:03;;;;;;;9.57;6.43;;;17.60;99.90;;;;;;5073284;28;20853;-83
2021/07/22 00:04:30;;;;;;;7.57;6.20;;;17.60;99.90;;;;;;5073387;28;20429;-84
2021/07/22 00:06:56;;;;;;;6.80;6.10;;;17.50;99.90;;;;;;5073314;28;20954;-84
2021/07/22 00:09:24;;;;;;;6.80;5.70;;;17.50;99.90;;;;;;5073506;28;20465;-83
2021/07/22 00:11:52;;;;;;;6.70;5.97;;;17.50;99.90;;;;;;5073527;28;20453;-83
2021/07/22 00:14:18;;;;;;;7.70;6.50;;;17.50;99.90;;;;;;5073473;28;20440;-83
2021/07/22 00:16:45;;;;;;;10.03;7.00;;;17.50;99.90;;;;;;5073431;28;20437;-84
2021/07/22 00:19:12;;;;;;;6.87;5.40;;;17.50;99.90;;;;;;5073330;28;20473;-84
2021/07/22 00:21:39;;;;;;;7.73;6.53;;;17.50;99.90;;;;;;5073349;28;20476;-84
2021/07/22 00:24:06;;;;;;;7.17;6.17;;;17.40;99.90;;;;;;5073367;28;20455;-84
2021/07/22 00:26:38;;;;;;;9.60;6.00;;;17.40;99.90;;;;;;5075132;28;20449;-83
2021/07/22 00:29:05;;;;;;;8.70;5.90;;;17.40;99.90;;;;;;5076381;28;20483;-84
2021/07/22 00:31:32;;;;;;;12.20;7.70;;;17.30;99.90;;;;;;5074314;28;20808;-83
2021/07/22 00:33:58;;;;;;;9.37;6.50;;;17.30;99.90;;;;;;5073821;28;20449;-84
2021/07/22 00:36:25;;;;;;;6.90;5.70;;;17.30;99.90;;;;;;5074066;28;20445;-84
2021/07/22 00:38:52;;;;;;;6.13;5.53;;;17.30;99.90;;;;;;5073658;28;20808;-83
2021/07/22 00:41:19;;;;;;;8.50;6.20;;;17.30;99.90;;;;;;5073017;28;20477;-84
2021/07/22 00:43:47;;;;;;;7.10;6.20;;;17.30;99.90;;;;;;5073302;28;20456;-83
2021/07/22 00:46:13;;;;;;;8.47;6.13;;;17.30;99.90;;;;;;5073309;28;20449;-83
2021/07/22 00:48:40;;;;;;;11.33;6.63;;;17.20;99.90;;;;;;5073069;28;20951;-84
2021/07/22 00:51:07;;;;;;;7.27;6.00;;;17.20;99.90;;;;;;5073098;28;20445;-84
2021/07/22 00:53:35;;;;;;;6.50;5.67;;;17.20;99.90;;;;;;5073145;28;20475;-84
2021/07/22 00:56:02;;;;;;;11.33;6.20;;;17.10;99.90;;;;;;5073086;28;20498;-84
2021/07/22 00:58:28;;;;;;;7.90;6.13;;;17.10;99.90;;;;;;5073042;28;20449;-83
2021/07/22 01:00:56;;;;;;;7.50;6.13;;;17.10;99.90;;;;;;5072521;28;21014;-83
2021/07/22 01:03:23;;;;;;;8.50;6.60;;;17.00;99.90;;;;;;5072990;28;20444;-83
2021/07/22 01:05:50;;;;;;;7.57;6.00;;;16.90;99.90;;;;;;5072992;28;20440;-84
2021/07/22 01:08:17;;;;;;;8.87;6.17;;;17.00;99.90;;;;;;5076486;28;20445;-84
2021/07/22 01:10:43;;;;;;;6.50;5.77;;;16.90;99.90;;;;;;5076399;28;20994;-83
2021/07/22 01:13:10;;;;;;;11.43;6.10;;;16.90;99.90;;;;;;5076371;28;20449;-84
2021/07/22 01:15:37;;;;;;;9.70;6.77;;;16.90;99.90;;;;;;5076550;28;20453;-83
2021/07/22 01:18:05;;;;;;;8.57;6.27;;;16.90;99.90;;;;;;5076621;28;20453;-84
2021/07/22 01:20:33;;;;;;;10.17;6.90;;;16.90;99.90;;;;;;5076386;28;20464;-84
2021/07/22 01:23:00;;;;;;;6.30;5.67;;;16.90;99.90;;;;;;5076512;28;20449;-84
2021/07/22 01:25:29;;;;;;;6.30;5.70;;;17.00;99.90;;;;;;5076434;28;20453;-83
2021/07/22 01:27:57;;;;;;;8.30;6.37;;;17.00;99.90;;;;;;5076053;28;20979;-84
2021/07/22 01:30:24;;;;;;;8.47;5.87;;;17.00;99.90;;;;;;5075841;28;20488;-84
2021/07/22 01:32:52;;;;;;;10.67;7.40;;;17.00;99.90;;;;;;5076047;28;20445;-84
2021/07/22 01:35:19;;;;;;;9.57;5.97;;;16.90;99.90;;;;;;5076358;28;20502;-84
2021/07/22 01:37:49;;;;;;;6.10;5.10;;;17.00;99.90;;;;;;5075961;28;20956;-83
2021/07/22 01:40:19;;;;;;;6.93;5.80;;;16.90;99.90;;;;;;5076199;28;20472;-84
2021/07/22 01:42:46;;;;;;;7.33;5.60;;;16.90;99.90;;;;;;5076140;28;20476;-83
2021/07/22 01:45:13;;;;;;;9.77;6.20;;;16.90;99.90;;;;;;5076171;28;20523;-83
2021/07/22 01:47:41;;;;;;;7.60;5.87;;;16.80;99.90;;;;;;5076136;28;20452;-83
2021/07/22 01:50:09;;;;;;;9.10;6.40;;;16.80;99.90;;;;;;5076006;28;20518;-83
2021/07/22 01:52:36;;;;;;;8.43;6.60;;;16.80;99.90;;;;;;5076051;28;20448;-84
2021/07/22 01:55:05;;;;;;;8.63;6.70;;;16.70;99.90;;;;;;5076003;28;20856;-83
2021/07/22 01:57:32;;;;;;;7.33;6.17;;;16.70;99.90;;;;;;5075624;28;20940;-83
2021/07/22 02:00:04;;;;;;;8.40;6.53;;;16.70;99.90;;;;;;5075817;28;20518;-83
2021/07/22 02:02:31;;;;;;;6.63;5.93;;;16.60;99.90;;;;;;5075898;28;20869;-83
2021/07/22 02:04:58;;;;;;;8.00;6.53;;;16.60;99.90;;;;;;5075474;28;20441;-83
2021/07/22 02:07:24;;;;;;;10.97;6.57;;;16.60;99.90;;;;;;5075432;28;21006;-83
2021/07/22 02:09:51;;;;;;;9.07;7.63;;;16.50;99.90;;;;;;5075627;28;20472;-83
2021/07/22 02:12:19;;;;;;;11.37;7.10;;;16.50;99.90;;;;;;5075667;28;20440;-83
2021/07/22 02:14:50;;;;;;;8.30;6.30;;;16.50;99.90;;;;;;5075313;28;20824;-83
2021/07/22 02:17:17;;;;;;;7.20;6.47;;;16.40;99.90;;;;;;5075367;28;20471;-83
2021/07/22 02:19:44;;;;;;;10.43;7.17;;;16.40;99.90;;;;;;5075422;28;20461;-83
2021/07/22 02:22:11;;;;;;;9.70;6.93;;;16.40;99.90;;;;;;5075380;28;20483;-83
2021/07/22 02:24:37;;;;;;;10.67;7.30;;;16.30;99.90;;;;;;5075391;28;20452;-84
2021/07/22 02:27:05;;;;;;;11.13;6.70;;;16.30;99.90;;;;;;5075357;28;20457;-84
2021/07/22 02:29:33;;;;;;;13.57;7.67;;;16.30;99.90;;;;;;5075851;28;20480;-83
2021/07/22 02:31:59;;;;;;;11.53;7.60;;;16.40;99.90;;;;;;5075796;28;20802;-83
2021/07/22 02:34:26;;;;;;;13.40;8.17;;;16.30;99.90;;;;;;5075549;28;20456;-83
2021/07/22 02:36:53;;;;;;;10.23;7.40;;;16.30;99.90;;;;;;5075653;28;20441;-83
2021/07/22 02:39:20;;;;;;;10.97;7.30;;;16.30;99.90;;;;;;5075354;28;20464;-84
2021/07/22 02:41:46;;;;;;;10.23;6.93;;;16.30;99.90;;;;;;5075118;28;20492;-83
2021/07/22 02:44:13;;;;;;;8.87;6.90;;;16.30;99.90;;;;;;5074711;28;20795;-83
2021/07/22 02:46:42;;;;;;;8.90;7.17;;;16.20;99.90;;;;;;5074981;28;20448;-83
2021/07/22 02:49:08;;;;;;;9.27;6.90;;;16.30;99.90;;;;;;5074569;28;21002;-83
2021/07/22 02:51:35;;;;;;;15.23;7.20;;;16.20;99.90;;;;;;5074849;28;20446;-84
2021/07/22 02:54:02;;;;;;;9.80;7.53;;;16.10;99.90;;;;;;5074867;28;20440;-84
2021/07/22 02:56:29;;;;;;;9.43;7.17;;;16.10;99.90;;;;;;5074791;28;20441;-83
2021/07/22 02:58:55;;;;;;;13.53;7.90;;;16.10;99.90;;;;;;5074401;28;20433;-83
2021/07/22 03:01:22;;;;;;;10.90;7.47;;;16.00;99.90;;;;;;5074340;28;20468;-83
2021/07/22 03:03:50;;;;;;;7.57;6.77;;;16.00;99.90;;;;;;5074550;28;20444;-83
2021/07/22 03:06:17;;;;;;;8.80;6.43;;;16.00;99.90;;;;;;5074551;28;20452;-84
2021/07/22 03:08:44;;;;;;;7.53;6.40;;;15.90;99.90;;;;;;5074552;28;20456;-83
2021/07/22 03:11:11;;;;;;;8.53;7.20;;;15.90;99.90;;;;;;5075008;28;20452;-83
2021/07/22 03:13:38;;;;;;;8.30;6.50;;;15.90;99.90;;;;;;5074402;28;20461;-84
2021/07/22 03:16:06;;;;;;;7.80;7.00;;;15.80;99.90;;;;;;5074378;28;20449;-83
2021/07/22 03:18:33;;;;;;;12.10;7.60;;;15.80;99.90;;;;;;5073972;28;20493;-83
2021/07/22 03:21:01;;;;;;;10.90;7.40;;;15.80;99.90;;;;;;5073838;28;20498;-83
2021/07/22 03:23:28;;;;;;;8.90;6.60;;;15.80;99.90;;;;;;5074741;28;20440;-83
2021/07/22 03:25:55;;;;;;;8.30;6.53;;;15.70;99.90;;;;;;5074203;28;20441;-83
2021/07/22 03:28:23;;;;;;;10.77;8.17;;;15.70;99.90;;;;;;5074192;28;20502;-83
2021/07/22 03:30:49;;;;;;;10.67;7.30;;;15.70;99.90;;;;;;5072986;28;20476;-83
2021/07/22 03:33:16;;;;;;;11.30;7.00;;;15.60;99.90;;;;;;5073765;28;20444;-83
2021/07/22 03:35:43;;;;;;;8.10;6.37;;;15.60;99.90;;;;;;5074017;28;20441;-82
2021/07/22 03:38:11;;;;;;;9.57;7.10;;;15.60;99.90;;;;;;5074043;28;20448;-82
2021/07/22 03:40:38;;;;;;;9.87;7.77;;;15.60;99.90;;;;;;5073804;28;20465;-82
2021/07/22 03:43:04;;;;;;;9.17;7.10;;;15.60;99.90;;;;;;5074917;28;20488;-82
2021/07/22 03:45:31;;;;;;;9.13;7.20;;;15.70;99.90;;;;;;5075832;28;20448;-82
2021/07/22 03:48:00;;;;;;;10.03;8.00;;;15.70;99.90;;;;;;5073839;28;20460;-82
2021/07/22 03:50:27;;;;;;;10.10;8.13;;;15.70;99.90;;;;;;5073738;28;20473;-82
2021/07/22 03:52:55;;;;;;;12.50;7.50;;;15.70;99.90;;;;;;5073773;28;20440;-82
2021/07/22 03:55:24;;;;;;;10.20;7.90;;;15.60;99.90;;;;;;5073752;28;20449;-82
2021/07/22 03:57:51;;;;;;;9.53;7.53;;;15.60;99.90;;;;;;5073679;28;20445;-82
2021/07/22 04:00:19;;;;;;;9.40;6.70;;;15.60;99.90;;;;;;5073266;28;20479;-82
2021/07/22 04:02:46;;;;;;;7.30;6.33;;;15.60;99.90;;;;;;5073529;28;20491;-82
2021/07/22 04:05:13;;;;;;;8.97;6.10;;;15.60;99.90;;;;;;5073634;28;20471;-82
2021/07/22 04:07:39;;;;;;;9.30;6.53;;;15.60;99.90;;;;;;5073585;28;20440;-82
2021/07/22 04:10:07;;;;;;;9.20;6.07;;;15.60;99.90;;;;;;5073468;28;20465;-82
2021/07/22 04:12:35;;;;;;;9.80;7.30;;;15.70;99.90;;;;;;5073500;28;20444;-82
2021/07/22 04:15:02;;;;;;;10.30;7.00;;;15.70;99.90;;;;;;5073508;28;20518;-82
2021/07/22 04:17:29;;;;;;;8.80;6.93;;;15.70;99.90;;;;;;5073476;28;20445;-82
2021/07/22 04:19:56;;;;;;;6.80;6.10;;;15.70;99.90;;;;;;5073383;28;20825;-82
2021/07/22 04:22:23;;;;;;;8.70;6.80;;;15.70;99.90;;;;;;5073239;28;20491;-83
2021/07/22 04:24:49;;;;;;;8.30;6.37;;;15.70;99.90;;;;;;5073394;28;20445;-82
2021/07/22 04:27:16;;;;;;;9.43;7.17;;;15.80;99.90;;;;;;5073379;28;20445;-83
2021/07/22 04:29:44;;;;;;;8.07;6.63;;;15.80;99.90;;;;;;5072746;28;21033;-82
2021/07/22 04:32:11;;;;;;;7.30;5.80;;;15.90;99.90;;;;;;5073248;28;20437;-82
2021/07/22 04:34:38;;;;;;;8.43;6.57;;;15.90;99.90;;;;;;5073188;28;20455;-82
2021/07/22 04:37:06;;;;;;;7.13;6.03;;;16.00;99.90;;;;;;5073206;28;20457;-82
2021/07/22 04:39:33;;;;;;;8.60;6.10;;;16.10;99.90;;;;;;5073141;28;20514;-82
2021/07/22 04:41:59;;;;;;;7.50;5.97;;;16.10;99.90;;;;;;5074414;28;20987;-82
2021/07/22 04:44:27;;;;;;;8.53;6.20;;;16.20;99.90;;;;;;5077016;28;20437;-82
2021/07/22 04:46:56;;;;;;;14.17;6.90;;;16.30;99.90;;;;;;5076995;28;20865;-82
2021/07/22 04:49:22;;;;;;;7.50;6.27;;;16.40;99.90;;;;;;5077168;28;20475;-82
2021/07/22 04:51:49;;;;;;;9.57;6.70;;;16.40;99.90;;;;;;5077963;28;20441;-82
2021/07/22 04:54:16;;;;;;;14.17;6.73;;;16.50;99.90;;;;;;5076850;28;20451;-82
2021/07/22 04:56:43;;;;;;;11.23;7.27;;;16.50;99.90;;;;;;5077111;28;20448;-82
2021/07/22 04:59:10;;;;;;;9.13;6.90;;;16.60;99.90;;;;;;5076959;28;20464;-82
2021/07/22 05:01:36;;;;;;;7.60;6.80;;;16.70;99.90;;;;;;5076858;28;20447;-82
2021/07/22 05:04:05;;;;;;;13.13;7.20;;;16.70;99.90;;;;;;5076856;28;20441;-82
2021/07/22 05:06:32;;;;;;;10.20;6.87;;;16.80;99.90;;;;;;5076848;28;20555;-82
2021/07/22 05:08:58;;;;;;;10.30;6.90;;;16.90;99.90;;;;;;5076693;28;20476;-82
2021/07/22 05:11:25;;;;;;;10.47;7.13;;;16.90;99.90;;;;;;5076785;28;20440;-82
2021/07/22 05:13:52;;;;;;;7.90;7.10;;;17.00;99.90;;;;;;5076670;28;20444;-82
2021/07/22 05:16:20;;;;;;;8.80;6.70;;;17.10;99.90;;;;;;5076625;28;20448;-82
2021/07/22 05:18:47;;;;;;;10.70;8.00;;;17.10;99.90;;;;;;5076101;28;20954;-82
2021/07/22 05:21:15;;;;;;;11.63;7.20;;;17.20;99.90;;;;;;5076537;28;20445;-82
2021/07/22 05:23:42;;;;;;;9.83;7.23;;;17.30;99.90;;;;;;5076523;28;20496;-82
2021/07/22 05:26:10;;;;;;;9.87;6.77;;;17.30;99.90;;;;;;5077132;28;20786;-82
2021/07/22 05:28:38;;;;;;;6.77;5.93;;;17.40;99.90;;;;;;5076313;28;20460;-83
2021/07/22 05:31:06;;;;;;;8.50;6.93;;;17.40;99.90;;;;;;5076394;28;20482;-82
2021/07/22 05:33:33;;;;;;;7.97;6.90;;;17.40;99.90;;;;;;5076338;28;20452;-82
2021/07/22 05:36:02;;;;;;;8.10;6.40;;;17.40;99.90;;;;;;5076197;28;20452;-82
2021/07/22 05:38:57;;;;;;;9.57;6.93;;;17.40;99.90;;;;;;5075941;28;21014;-82
2021/07/22 05:41:24;;;;;;;8.50;6.60;;;17.40;99.90;;;;;;5078007;28;20456;-82
2021/07/22 05:43:51;;;;;;;9.53;6.57;;;17.40;99.90;;;;;;5076300;28;20484;-82
2021/07/22 05:46:21;;;;;;;9.13;6.70;;;17.50;99.90;;;;;;5076223;28;20445;-82
2021/07/22 05:48:48;;;;;;;8.00;6.57;;;17.50;99.90;;;;;;5076087;28;20448;-82
2021/07/22 05:51:16;;;;;;;10.20;6.10;;;17.60;99.90;;;;;;5076250;28;20441;-82
2021/07/22 05:53:43;;;;;;;9.70;6.90;;;17.60;99.90;;;;;;5077429;28;20441;-85
2021/07/22 05:56:17;;;;;;;10.20;7.40;;;17.70;99.90;;;;;;5081218;28;20472;-85
2021/07/22 05:58:43;;;;;;;11.07;7.23;;;17.90;99.90;;;;;;5080411;28;20437;-85
2021/07/22 06:01:10;;;;;;;9.00;7.07;;;17.90;99.90;;;;;;5075979;28;20452;-86
2021/07/22 06:03:37;;;;;;;9.33;6.20;;;18.00;99.90;;;;;;5076913;28;20484;-85
2021/07/22 06:06:05;;;;;;;8.03;6.60;;;18.10;99.90;;;;;;5076776;28;20449;-84
2021/07/22 06:08:33;;;;;;;8.53;5.90;;;18.30;99.90;;;;;;5075768;28;20502;-85
2021/07/22 06:11:00;;;;;;;8.43;7.10;;;18.40;99.90;;;;;;5076217;28;20480;-85
2021/07/22 06:13:28;;;;;;;10.13;7.37;;;18.50;99.90;;;;;;5075999;28;20441;-85
2021/07/22 06:15:57;;;;;;;10.03;6.73;;;18.60;99.90;;;;;;5075978;28;20436;-85
2021/07/22 06:18:23;;;;;;;7.90;6.70;;;18.70;99.90;;;;;;5075628;28;20870;-85
2021/07/22 06:20:50;;;;;;;10.60;7.17;;;18.90;99.90;;;;;;5075555;28;20476;-85
2021/07/22 06:23:17;;;;;;;10.30;6.57;;;19.00;99.90;;;;;;5075866;28;20485;-84
2021/07/22 06:25:44;;;;;;;9.70;6.07;;;19.20;99.90;;;;;;5075605;28;20449;-84
2021/07/22 06:28:10;;;;;;;8.10;6.60;;;19.20;99.90;;;;;;5075349;28;20444;-85
2021/07/22 06:30:38;;;;;;;7.40;6.53;;;19.30;99.90;;;;;;5075092;28;20480;-85
2021/07/22 06:33:05;;;;;;;9.00;7.20;;;19.50;99.90;;;;;;5075662;28;20790;-85
2021/07/22 06:35:32;;;;;;;9.30;6.90;;;19.70;99.90;;;;;;5075301;28;20433;-85
2021/07/22 06:37:59;;;;;;;8.50;7.00;;;19.80;99.90;;;;;;5075780;28;20461;-85
2021/07/22 06:40:26;;;;;;;7.80;6.30;;;19.70;99.90;;;;;;5075356;28;20456;-84
2021/07/22 06:42:53;;;;;;;8.00;6.40;;;19.70;99.90;;;;;;5075392;28;20485;-84
2021/07/22 06:45:19;;;;;;;8.40;6.23;;;19.60;99.90;;;;;;5075293;28;20453;-84
2021/07/22 06:47:47;;;;;;;8.10;6.73;;;19.60;99.90;;;;;;5076057;28;20448;-83
2021/07/22 06:50:14;;;;;;;8.00;6.60;;;19.70;99.90;;;;;;5086462;28;20468;-83
2021/07/22 06:52:41;;;;;;;10.10;6.40;;;19.90;99.90;;;;;;5076736;28;20451;-84
2021/07/22 06:55:09;;;;;;;8.90;6.70;;;20.10;99.90;;;;;;5077248;28;20452;-84
2021/07/22 06:57:36;;;;;;;11.90;6.63;;;20.30;99.90;;;;;;5076982;28;20476;-83
2021/07/22 07:00:04;;;;;;;10.70;7.00;;;20.50;99.90;;;;;;5077354;28;20487;-85
2021/07/22 07:02:30;;;;;;;7.63;6.27;;;20.60;99.90;;;;;;5077192;28;21009;-85
2021/07/22 07:04:59;;;;;;;10.10;7.23;;;20.80;99.90;;;;;;5074818;28;20466;-85
2021/07/22 07:07:25;;;;;;;9.90;6.67;;;21.00;99.90;;;;;;5075788;28;20452;-85
2021/07/22 07:09:53;;;;;;;8.40;6.47;;;21.20;99.90;;;;;;5075007;28;20468;-83
2021/07/22 07:12:20;;;;;;;7.63;6.00;;;21.20;99.90;;;;;;5074769;28;20522;-83
2021/07/22 07:14:46;;;;;;;10.20;7.00;;;21.20;99.90;;;;;;5074362;28;20451;-84
2021/07/22 07:17:13;;;;;;;10.83;7.07;;;21.20;99.90;;;;;;5074494;28;20453;-84
2021/07/22 07:19:40;;;;;;;6.67;6.03;;;21.30;99.90;;;;;;5074600;28;20467;-84
2021/07/22 07:22:08;;;;;;;7.20;5.87;;;21.50;99.90;;;;;;5074356;28;20931;-84
2021/07/22 07:24:35;;;;;;;7.20;5.13;;;21.70;99.90;;;;;;5074598;28;20486;-84
2021/07/22 07:27:01;;;;;;;6.70;5.77;;;21.90;99.90;;;;;;5074505;28;20461;-83
2021/07/22 07:29:28;;;;;;;9.90;5.70;;;21.90;99.90;;;;;;5073944;28;20491;-84
2021/07/22 07:31:59;;;;;;;8.97;7.13;;;22.10;99.90;;;;;;5074263;28;20539;-83
2021/07/22 07:34:25;;;;;;;6.43;5.67;;;22.30;99.90;;;;;;5074133;28;20421;-84
2021/07/22 07:36:52;;;;;;;7.20;5.47;;;22.40;99.90;;;;;;5074423;28;20808;-84
2021/07/22 07:39:20;;;;;;;8.57;6.63;;;22.50;99.90;;;;;;5074090;28;20222;-83
2021/07/22 07:41:47;;;;;;;6.07;5.50;;;22.60;99.90;;;;;;5074240;28;20209;-84
2021/07/22 07:44:14;;;;;;;6.23;5.60;;;22.70;99.90;;;;;;5074425;28;20594;-83
2021/07/22 07:46:41;;;;;;;6.43;5.90;;;22.80;99.90;;;;;;5073934;28;20570;-83
2021/07/22 07:49:08;;;;;;;7.37;5.07;;;23.00;99.90;;;;;;5073910;28;20217;-83
2021/07/22 07:51:35;;;;;;;9.85;5.68;;;23.20;99.90;;;;;;5073819;28;20289;-83
2021/07/22 07:54:02;;;;;;;8.37;5.97;;;23.30;99.90;;;;;;5073447;28;20209;-83
2021/07/22 07:56:30;;;;;;;6.20;5.60;;;23.50;99.90;;;;;;5073418;28;20573;-82
2021/07/22 07:58:56;;;;;;;5.30;4.85;;;23.70;99.90;;;;;;5073635;28;20213;-83
2021/07/22 08:01:27;;;;;;;6.93;5.63;;;24.00;99.90;;;;;;5073670;28;20202;-84
2021/07/22 08:03:53;;;;;;;6.25;5.22;;;24.50;99.90;;;;;;5073530;28;20202;-83
2021/07/22 08:06:20;;;;;;;7.47;6.75;;;24.80;99.90;;;;;;5073546;28;20202;-83
2021/07/22 08:08:47;;;;;;;6.95;5.85;;;25.00;99.90;;;;;;5073672;28;20209;-86
2021/07/22 08:11:14;;;;;;;6.18;5.57;;;25.40;99.90;;;;;;5073632;28;20209;-86
2021/07/22 08:13:42;;;;;;;6.28;5.75;;;26.00;98.70;;;;;;5073655;28;20202;-87
2021/07/22 08:16:14;;;;;;;6.55;5.85;;;26.30;97.60;;;;;;5073115;28;20207;-86
2021/07/22 08:18:41;;;;;;;6.72;6.13;;;26.50;95.60;;;;;;5073173;28;20189;-87
2021/07/22 08:21:08;;;;;;;6.88;6.22;;;26.50;94.90;;;;;;5073207;28;20205;-87
2021/07/22 08:23:34;;;;;;;6.05;5.45;;;26.60;93.10;;;;;;5073182;28;20707;-87
2021/07/22 08:26:01;;;;;;;6.00;5.38;;;26.60;93.00;;;;;;5073408;28;20207;-87
2021/07/22 08:28:28;;;;;;;5.38;4.95;;;26.60;92.30;;;;;;5073107;28;20204;-87
2021/07/22 08:30:56;;;;;;;6.13;5.63;;;26.70;91.50;;;;;;5073037;28;20243;-87
2021/07/22 08:33:23;;;;;;;5.68;5.18;;;26.90;91.30;;;;;;5073563;28;20200;-86
2021/07/22 08:35:49;;;;;;;5.80;5.25;;;27.00;90.60;;;;;;5073052;28;20196;-87
2021/07/22 08:38:16;;;;;;;7.80;5.93;;;27.00;86.00;;;;;;5073078;28;20692;-87
2021/07/22 08:40:43;;;;;;;8.57;6.57;;;26.80;87.50;;;;;;5072976;28;20213;-85
2021/07/22 08:43:10;;;;;;;6.90;6.30;;;26.60;85.00;;;;;;5073130;28;20225;-86
2021/07/22 08:45:37;;;;;;;6.70;4.72;;;26.40;86.50;;;;;;5073557;28;20200;-86
2021/07/22 08:48:06;;;;;;;6.18;5.68;;;26.20;86.50;;;;;;5073249;28;20197;-87
2021/07/22 08:50:32;;;;;;;9.30;5.93;;;26.10;85.50;;;;;;5073166;28;20218;-86
2021/07/22 08:52:59;;;;;;;6.03;5.43;;;26.00;87.30;;;;;;5073295;28;20206;-86
2021/07/22 08:55:26;;;;;;;7.20;5.82;;;25.90;87.80;;;;;;5073386;28;20240;-86
2021/07/22 08:57:54;;;;;;;6.05;5.55;;;25.90;90.00;;;;;;5083326;28;20186;-84
2021/07/22 09:00:21;;;;;;;6.85;5.93;;;26.00;90.00;;;;;;5081022;28;20236;-82
2021/07/22 09:02:47;;;;;;;5.70;5.20;;;26.00;90.80;;;;;;5073528;28;20202;-83
2021/07/22 09:05:15;;;;;;;6.45;5.80;;;26.00;88.70;;;;;;5073096;28;20213;-83
2021/07/22 09:07:42;;;;;;;8.50;6.00;;;26.10;88.50;;;;;;5072854;28;20194;-84
2021/07/22 09:10:18;;;;;;;5.45;5.05;;;26.20;87.00;;;;;;5073224;28;20233;-83
2021/07/22 09:12:47;;;;;;;10.70;5.75;;;26.20;88.00;;;;;;5073083;28;20239;-83
2021/07/22 09:15:23;;;;;;;6.05;5.25;;;26.30;87.10;;;;;;5072992;28;20210;-83
2021/07/22 09:17:50;;;;;;;5.72;5.10;;;26.30;88.70;;;;;;5073026;28;20190;-82
2021/07/22 09:20:30;;;;;;;6.75;5.50;;;26.30;88.50;;;;;;5072809;28;20588;-83
2021/07/22 09:22:58;;;;;;;6.82;6.07;;;26.30;87.00;;;;;;5072556;28;20602;-82
2021/07/22 09:25:39;;;;;;;6.47;5.88;;;26.40;85.70;;;;;;5074236;28;20213;-83
2021/07/22 09:28:06;;;;;;;7.30;5.60;;;26.50;84.30;;;;;;5074564;28;20190;-82
2021/07/22 09:30:34;;;;;;;7.35;5.72;;;26.50;85.10;;;;;;5076299;28;20279;-83
2021/07/22 09:33:01;;;;;;;6.78;6.18;;;26.70;85.60;;;;;;5076744;28;20210;-83
2021/07/22 09:35:29;;;;;;;7.57;6.88;;;26.70;83.20;;;;;;5076268;28;20574;-83
2021/07/22 09:37:58;;;;;;;6.40;5.85;;;26.70;84.70;;;;;;5076335;28;20202;-83
2021/07/22 09:40:35;;;;;;;6.75;5.93;;;26.90;85.30;;;;;;5076293;28;20633;-83
2021/07/22 09:43:02;;;;;;;10.73;7.13;;;26.80;84.40;;;;;;5076049;28;20209;-82
2021/07/22 09:45:31;;;;;;;6.03;5.43;;;27.00;83.00;;;;;;5075881;28;20198;-83
2021/07/22 09:48:09;;;;;;;8.48;6.22;;;27.10;81.60;;;;;;5076151;28;20202;-84
2021/07/22 09:50:42;;;;;;;8.02;6.18;;;27.10;82.90;;;;;;5076046;28;20222;-83
2021/07/22 09:53:10;;;;;;;6.50;5.90;;;27.30;82.70;;;;;;5076201;28;20538;-85
2021/07/22 09:55:38;;;;;;;7.45;6.30;;;27.20;80.60;;;;;;5076513;28;20186;-84
2021/07/22 09:58:06;;;;;;;7.13;6.43;;;27.20;82.80;;;;;;5075946;28;20213;-85
2021/07/22 10:00:35;;;;;;;7.32;6.65;;;27.30;81.30;;;;;;5075882;28;20229;-83
2021/07/22 10:03:03;;;;;;;7.15;6.45;;;27.40;80.30;;;;;;5075915;28;20209;-84
2021/07/22 10:05:32;;;;;;;6.97;6.32;;;27.40;81.50;;;;;;5076227;28;20202;-86
2021/07/22 10:08:01;;;;;;;7.55;6.53;;;27.40;82.10;;;;;;5075725;28;20202;-84
2021/07/22 10:10:29;;;;;;;7.95;6.97;;;27.50;80.50;;;;;;5075677;28;20222;-85
2021/07/22 10:12:57;;;;;;;8.45;7.55;;;27.70;84.30;;;;;;5075661;28;20198;-84
2021/07/22 10:15:27;;;;;;;8.07;7.22;;;27.90;81.60;;;;;;5075316;28;20206;-85
2021/07/22 10:17:56;;;;;;;7.40;6.70;;;28.10;80.50;;;;;;5075583;28;20201;-85
2021/07/22 10:20:24;;;;;;;7.75;6.93;;;28.30;79.20;;;;;;5075173;28;20229;-85
2021/07/22 10:22:51;;;;;;;7.32;6.72;;;28.60;77.80;;;;;;5075522;28;20206;-85
2021/07/22 10:25:19;;;;;;;8.10;6.60;;;28.50;77.90;;;;;;5075299;28;20226;-86
2021/07/22 10:27:46;;;;;;;7.70;7.00;;;28.50;78.10;;;;;;5075405;28;20289;-86
2021/07/22 10:30:15;;;;;;;7.28;6.38;;;28.60;75.90;;;;;;5075097;28;20245;-84
2021/07/22 10:32:47;;;;;;;7.55;6.85;;;28.50;76.50;;;;;;5075508;28;20305;-84
2021/07/22 10:35:16;;;;;;;7.72;7.03;;;28.30;75.40;;;;;;5075368;28;20178;-84
2021/07/22 10:38:05;;;;;;;7.13;6.43;;;28.40;76.30;;;;;;5075265;28;20191;-84
2021/07/22 10:40:48;;;;;;;7.03;6.43;;;28.80;77.10;;;;;;5075043;28;20227;-84
2021/07/22 10:43:43;;;;;;;8.73;6.53;;;29.30;74.30;;;;;;5074802;28;20641;-84
2021/07/22 10:46:13;;;;;;;7.93;6.68;;;29.70;73.70;;;;;;5075150;28;20205;-85
2021/07/22 10:48:41;;;;;;;7.07;6.47;;;29.70;70.50;;;;;;5074628;28;20197;-84
2021/07/22 10:51:12;;;;;;;7.45;6.80;;;29.60;71.30;;;;;;5074869;28;20204;-84
2021/07/22 10:53:44;;;;;;;7.60;6.63;;;29.40;70.50;;;;;;5075099;28;20190;-84
2021/07/22 10:56:13;;;;;;;7.70;7.00;;;29.00;73.40;;;;;;5074589;28;20187;-84
2021/07/22 10:58:53;;;;;;;7.80;6.93;;;28.90;73.00;;;;;;5074782;28;20221;-84
2021/07/22 11:02:00;;;;;;;7.28;6.65;;;29.10;73.60;;;;;;5074479;28;20187;-84
2021/07/22 11:04:46;;;;;;;6.80;6.10;;;28.90;71.70;;;;;;5074637;28;20216;-84
2021/07/22 11:07:23;;;;;;;6.85;6.07;;;28.70;73.30;;;;;;5074650;28;20239;-84
2021/07/22 11:09:52;;;;;;;12.82;8.45;;;28.50;72.30;;;;;;5074594;28;20247;-84
2021/07/22 11:12:42;;;;;;;7.82;7.07;;;28.10;72.00;;;;;;5074326;28;20190;-85
2021/07/22 11:15:10;;;;;;;9.63;7.35;;;27.70;74.00;;;;;;5074507;28;20178;-84
2021/07/22 11:17:37;;;;;;;7.93;7.03;;;27.50;76.00;;;;;;5074503;28;20206;-84
2021/07/22 11:20:44;;;;;;;7.47;6.72;;;27.50;77.00;;;;;;5074287;28;20224;-84
2021/07/22 11:23:16;;;;;;;8.27;7.35;;;27.40;76.30;;;;;;5075322;28;20192;-83
2021/07/22 11:25:49;;;;;;;8.43;7.63;;;27.40;76.10;;;;;;5075487;28;20225;-84
2021/07/22 11:28:23;;;;;;;8.40;7.57;;;27.30;78.70;;;;;;5074478;28;20220;-85
2021/07/22 11:31:05;;;;;;;10.05;7.25;;;27.20;77.10;;;;;;5074900;28;20237;-84
2021/07/22 11:33:33;;;;;;;8.35;7.55;;;27.20;77.10;;;;;;5074416;28;20208;-83
2021/07/22 11:36:03;;;;;;;7.45;6.75;;;27.40;75.60;;;;;;5074094;28;20297;-84
2021/07/22 11:38:30;;;;;;;9.93;6.65;;;27.40;77.00;;;;;;5073875;28;20685;-84
2021/07/22 11:40:57;;;;;;;8.57;7.15;;;27.40;76.00;;;;;;5073691;28;20226;-84
2021/07/22 11:43:40;;;;;;;7.97;7.13;;;27.50;74.70;;;;;;5073986;28;20202;-84
2021/07/22 11:46:09;;;;;;;8.23;7.40;;;27.40;76.00;;;;;;5073932;28;20191;-85
2021/07/22 11:48:36;;;;;;;6.82;6.22;;;27.20;77.10;;;;;;5073535;28;20688;-84
2021/07/22 11:51:05;;;;;;;10.15;7.00;;;27.10;76.00;;;;;;5073220;28;20229;-84
2021/07/22 11:53:32;;;;;;;7.90;7.10;;;27.20;78.00;;;;;;5073615;28;20695;-85
2021/07/22 11:56:08;;;;;;;7.95;7.25;;;27.00;75.80;;;;;;5073804;28;20565;-85
2021/07/22 11:58:35;;;;;;;8.23;7.43;;;27.00;76.80;;;;;;5073707;28;20272;-85
2021/07/22 12:01:03;;;;;;;8.38;7.55;;;26.90;79.40;;;;;;5073782;28;20310;-83
2021/07/22 12:03:30;;;;;;;8.90;7.85;;;27.00;76.70;;;;;;5073513;28;20202;-85
2021/07/22 12:05:57;;;;;;;9.10;8.00;;;27.20;74.60;;;;;;5073505;28;20229;-85
2021/07/22 12:08:23;;;;;;;8.68;7.38;;;27.10;77.30;;;;;;5073550;28;20198;-84
2021/07/22 12:10:57;;;;;;;8.48;7.60;;;27.10;78.70;;;;;;5073171;28;20240;-84
2021/07/22 12:13:24;;;;;;;8.38;7.43;;;27.10;81.00;;;;;;5073732;28;20182;-84
2021/07/22 12:15:51;;;;;;;8.35;7.40;;;27.20;79.60;;;;;;5073808;28;20195;-90
2021/07/22 12:18:21;;;;;;;7.93;7.10;;;27.20;80.40;;;;;;5074160;28;20665;-89
2021/07/22 12:20:48;;;;;;;9.70;7.53;;;27.30;76.80;;;;;;5083143;28;20226;-88
2021/07/22 12:23:33;;;;;;;9.00;8.07;;;27.30;75.60;;;;;;5082395;28;20220;-89
2021/07/22 12:26:04;;;;;;;7.53;6.80;;;27.30;75.80;;;;;;5074984;28;20317;-86
2021/07/22 12:28:32;;;;;;;8.25;7.35;;;27.20;74.40;;;;;;5074941;28;20193;-90
2021/07/22 12:31:14;;;;;;;8.60;7.80;;;27.00;76.10;;;;;;5073933;28;20739;-89
2021/07/22 12:33:42;;;;;;;10.88;8.18;;;27.00;76.80;;;;;;5074257;28;20190;-91
2021/07/22 12:36:19;;;;;;;11.70;8.57;;;26.80;77.70;;;;;;5074553;28;20248;-90
2021/07/22 12:38:46;;;;;;;10.15;8.07;;;26.70;78.60;;;;;;5074421;28;20186;-89
2021/07/22 12:41:17;;;;;;;7.82;7.00;;;26.50;81.50;;;;;;5074302;28;20190;-90
2021/07/22 12:43:46;;;;;;;8.88;7.53;;;26.40;82.20;;;;;;5074147;28;20609;-90
2021/07/22 12:46:17;;;;;;;7.78;7.07;;;26.30;82.80;;;;;;5073787;28;20272;-90
2021/07/22 12:48:46;;;;;;;10.10;7.60;;;26.20;82.80;;;;;;5074117;28;20206;-90
2021/07/22 12:51:14;;;;;;;10.90;7.93;;;26.20;85.00;;;;;;5073623;28;20217;-89
2021/07/22 12:53:41;;;;;;;8.85;7.95;;;26.30;84.10;;;;;;5074159;28;20202;-89